sensor_id;sensor_type;location;lat;lon;timestamp;pressure;altitude;pressure_sealevel;temperature;humidity
7930;BME280;4010;42.698;23.124;2023-02-08T00:00:19;118349.16;;;-140.64;89.12
7930;BME280;4010;42.698;23.124;2023-02-08T00:02:48;118349.16;;;-140.64;88.86
7930;BME280;4010;42.698;23.124;2023-02-08T00:05:14;118349.16;;;-140.64;88.95
7930;BME280;4010;42.698;23.124;2023-02-08T00:07:41;118349.16;;;-140.64;89.07
7930;BME280;4010;42.698;23.124;2023-02-08T00:10:08;118349.16;;;-140.64;88.49
7930;BME280;4010;42.698;23.124;2023-02-08T00:12:36;118349.16;;;-140.64;88.57
7930;BME280;4010;42.698;23.124;2023-02-08T00:15:04;118349.16;;;-140.64;88.65
7930;BME280;4010;42.698;23.124;2023-02-08T00:17:30;118349.16;;;-140.64;88.01
7930;BME280;4010;42.698;23.124;2023-02-08T00:19:58;118349.16;;;-140.64;88.54
7930;BME280;4010;42.698;23.124;2023-02-08T00:22:25;118349.16;;;-140.64;87.88
7930;BME280;4010;42.698;23.124;2023-02-08T00:24:52;118349.16;;;-140.64;88.16
7930;BME280;4010;42.698;23.124;2023-02-08T00:27:18;118349.16;;;-140.64;88.25
7930;BME280;4010;42.698;23.124;2023-02-08T00:29:45;118349.16;;;-140.64;88.86
7930;BME280;4010;42.698;23.124;2023-02-08T00:32:12;118349.16;;;-140.64;88.33
7930;BME280;4010;42.698;23.124;2023-02-08T00:34:38;118349.16;;;-140.64;88.75
7930;BME280;4010;42.698;23.124;2023-02-08T00:37:06;118349.16;;;-140.64;89.35
7930;BME280;4010;42.698;23.124;2023-02-08T00:39:33;118349.16;;;-140.64;89.50
7930;BME280;4010;42.698;23.124;2023-02-08T00:42:00;118349.16;;;-140.64;89.59
7930;BME280;4010;42.698;23.124;2023-02-08T00:44:26;118349.16;;;-140.64;89.81
7930;BME280;4010;42.698;23.124;2023-02-08T00:46:53;118349.16;;;-140.64;89.95
7930;BME280;4010;42.698;23.124;2023-02-08T00:49:20;118349.16;;;-140.64;90.11
7930;BME280;4010;42.698;23.124;2023-02-08T00:51:46;118349.16;;;-140.64;89.26
7930;BME280;4010;42.698;23.124;2023-02-08T00:54:15;118349.16;;;-140.64;89.33
7930;BME280;4010;42.698;23.124;2023-02-08T00:56:42;118349.16;;;-140.64;88.49
7930;BME280;4010;42.698;23.124;2023-02-08T00:59:10;118349.16;;;-140.64;88.04
7930;BME280;4010;42.698;23.124;2023-02-08T01:01:37;118349.16;;;-140.64;88.58
7930;BME280;4010;42.698;23.124;2023-02-08T01:04:05;118349.16;;;-140.64;87.88
7930;BME280;4010;42.698;23.124;2023-02-08T01:06:32;118349.16;;;-140.64;87.58
7930;BME280;4010;42.698;23.124;2023-02-08T01:08:59;118349.16;;;-140.64;87.63
7930;BME280;4010;42.698;23.124;2023-02-08T01:11:27;118349.16;;;-140.64;87.12
7930;BME280;4010;42.698;23.124;2023-02-08T01:13:55;118349.16;;;-140.64;86.85
7930;BME280;4010;42.698;23.124;2023-02-08T01:16:24;118349.16;;;-140.64;86.51
7930;BME280;4010;42.698;23.124;2023-02-08T01:18:53;118349.16;;;-140.64;87.12
7930;BME280;4010;42.698;23.124;2023-02-08T01:21:22;118349.16;;;-140.64;86.94
7930;BME280;4010;42.698;23.124;2023-02-08T01:23:49;118349.16;;;-140.64;87.07
7930;BME280;4010;42.698;23.124;2023-02-08T01:26:17;118349.16;;;-140.64;86.68
7930;BME280;4010;42.698;23.124;2023-02-08T01:28:45;118349.16;;;-140.64;85.95
7930;BME280;4010;42.698;23.124;2023-02-08T01:31:16;118349.16;;;-140.64;86.01
7930;BME280;4010;42.698;23.124;2023-02-08T01:33:43;118349.16;;;-140.64;85.07
7930;BME280;4010;42.698;23.124;2023-02-08T01:36:10;118349.16;;;-140.64;85.30
7930;BME280;4010;42.698;23.124;2023-02-08T01:38:38;118349.16;;;-140.64;85.35
7930;BME280;4010;42.698;23.124;2023-02-08T01:41:05;118349.16;;;-140.64;85.21
7930;BME280;4010;42.698;23.124;2023-02-08T01:43:34;118349.16;;;-140.64;85.37
7930;BME280;4010;42.698;23.124;2023-02-08T01:46:22;118349.16;;;-140.64;85.17
7930;BME280;4010;42.698;23.124;2023-02-08T01:48:49;118349.16;;;-140.64;85.61
7930;BME280;4010;42.698;23.124;2023-02-08T01:51:19;118349.16;;;-140.64;86.15
7930;BME280;4010;42.698;23.124;2023-02-08T01:53:48;118349.16;;;-140.64;86.07
7930;BME280;4010;42.698;23.124;2023-02-08T01:56:19;118349.16;;;-140.64;85.75
7930;BME280;4010;42.698;23.124;2023-02-08T01:58:50;118349.16;;;-140.64;85.87
7930;BME280;4010;42.698;23.124;2023-02-08T02:01:17;118349.16;;;-140.64;85.81
7930;BME280;4010;42.698;23.124;2023-02-08T02:03:46;118349.16;;;-140.64;85.79
7930;BME280;4010;42.698;23.124;2023-02-08T02:06:15;118349.16;;;-140.64;84.83
7930;BME280;4010;42.698;23.124;2023-02-08T02:08:47;118349.16;;;-140.64;84.37
7930;BME280;4010;42.698;23.124;2023-02-08T02:11:15;118349.16;;;-140.64;84.35
7930;BME280;4010;42.698;23.124;2023-02-08T02:13:42;118349.16;;;-140.64;84.86
7930;BME280;4010;42.698;23.124;2023-02-08T02:16:09;118349.16;;;-140.64;85.30
7930;BME280;4010;42.698;23.124;2023-02-08T02:18:36;118349.16;;;-140.64;85.22
7930;BME280;4010;42.698;23.124;2023-02-08T02:21:23;118349.16;;;-140.64;85.12
7930;BME280;4010;42.698;23.124;2023-02-08T02:27:13;118349.16;;;-140.64;85.11
7930;BME280;4010;42.698;23.124;2023-02-08T02:30:00;118349.16;;;-140.64;84.96
7930;BME280;4010;42.698;23.124;2023-02-08T02:32:47;118349.16;;;-140.64;86.02
7930;BME280;4010;42.698;23.124;2023-02-08T02:35:24;118349.16;;;-140.64;86.56
7930;BME280;4010;42.698;23.124;2023-02-08T02:37:59;118349.16;;;-140.64;86.57
7930;BME280;4010;42.698;23.124;2023-02-08T02:40:34;118349.16;;;-140.64;85.88
7930;BME280;4010;42.698;23.124;2023-02-08T02:43:07;118349.16;;;-140.64;85.90
7930;BME280;4010;42.698;23.124;2023-02-08T02:45:58;118349.16;;;-140.64;86.03
7930;BME280;4010;42.698;23.124;2023-02-08T02:48:37;118349.16;;;-140.64;85.82
7930;BME280;4010;42.698;23.124;2023-02-08T02:51:09;118349.16;;;-140.64;85.56
7930;BME280;4010;42.698;23.124;2023-02-08T02:53:44;118349.16;;;-140.64;86.04
7930;BME280;4010;42.698;23.124;2023-02-08T02:56:17;118349.16;;;-140.64;86.33
7930;BME280;4010;42.698;23.124;2023-02-08T02:58:45;118349.16;;;-140.64;86.50
7930;BME280;4010;42.698;23.124;2023-02-08T03:01:12;118349.16;;;-140.64;86.19
7930;BME280;4010;42.698;23.124;2023-02-08T03:03:40;118349.16;;;-140.64;86.36
7930;BME280;4010;42.698;23.124;2023-02-08T03:06:11;118349.16;;;-140.64;86.50
7930;BME280;4010;42.698;23.124;2023-02-08T03:09:04;118349.16;;;-140.64;86.47
7930;BME280;4010;42.698;23.124;2023-02-08T03:11:35;118349.16;;;-140.64;87.01
7930;BME280;4010;42.698;23.124;2023-02-08T03:14:22;118349.16;;;-140.64;86.76
7930;BME280;4010;42.698;23.124;2023-02-08T03:17:14;118349.16;;;-140.64;87.01
7930;BME280;4010;42.698;23.124;2023-02-08T03:19:51;118349.16;;;-140.64;87.35
7930;BME280;4010;42.698;23.124;2023-02-08T03:22:22;118349.16;;;-140.64;87.25
7930;BME280;4010;42.698;23.124;2023-02-08T03:24:54;118349.16;;;-140.64;86.63
7930;BME280;4010;42.698;23.124;2023-02-08T03:27:27;118349.16;;;-140.64;86.76
7930;BME280;4010;42.698;23.124;2023-02-08T03:30:00;118349.16;;;-140.64;87.12
7930;BME280;4010;42.698;23.124;2023-02-08T03:32:35;118349.16;;;-140.64;86.80
7930;BME280;4010;42.698;23.124;2023-02-08T03:35:08;118349.16;;;-140.64;86.08
7930;BME280;4010;42.698;23.124;2023-02-08T03:37:38;118349.16;;;-140.64;85.97
7930;BME280;4010;42.698;23.124;2023-02-08T03:40:10;118349.16;;;-140.64;85.76
7930;BME280;4010;42.698;23.124;2023-02-08T03:42:39;118349.16;;;-140.64;86.45
7930;BME280;4010;42.698;23.124;2023-02-08T03:45:11;118349.16;;;-140.64;86.96
7930;BME280;4010;42.698;23.124;2023-02-08T03:47:43;118349.16;;;-140.64;87.27
7930;BME280;4010;42.698;23.124;2023-02-08T03:50:15;118349.16;;;-140.64;87.00
7930;BME280;4010;42.698;23.124;2023-02-08T03:52:44;118349.16;;;-140.64;86.89
7930;BME280;4010;42.698;23.124;2023-02-08T03:55:16;118349.16;;;-140.64;86.99
7930;BME280;4010;42.698;23.124;2023-02-08T03:57:47;118349.16;;;-140.64;86.57
7930;BME280;4010;42.698;23.124;2023-02-08T04:00:16;118349.16;;;-140.64;87.20
7930;BME280;4010;42.698;23.124;2023-02-08T04:02:49;118349.16;;;-140.64;87.17
7930;BME280;4010;42.698;23.124;2023-02-08T04:05:18;118349.16;;;-140.64;88.02
7930;BME280;4010;42.698;23.124;2023-02-08T04:07:45;118349.16;;;-140.64;88.10
7930;BME280;4010;42.698;23.124;2023-02-08T04:10:12;118349.16;;;-140.64;88.51
7930;BME280;4010;42.698;23.124;2023-02-08T04:12:39;118349.16;;;-140.64;88.35
7930;BME280;4010;42.698;23.124;2023-02-08T04:15:07;118349.16;;;-140.64;88.68
7930;BME280;4010;42.698;23.124;2023-02-08T04:17:33;118349.16;;;-140.64;89.26
7930;BME280;4010;42.698;23.124;2023-02-08T04:20:00;118349.16;;;-140.64;88.41
7930;BME280;4010;42.698;23.124;2023-02-08T04:22:28;118349.16;;;-140.64;89.32
7930;BME280;4010;42.698;23.124;2023-02-08T04:24:55;118349.16;;;-140.64;89.56
7930;BME280;4010;42.698;23.124;2023-02-08T04:27:21;118349.16;;;-140.64;89.64
7930;BME280;4010;42.698;23.124;2023-02-08T04:29:48;118349.16;;;-140.64;90.03
7930;BME280;4010;42.698;23.124;2023-02-08T04:32:15;118349.16;;;-140.64;91.17
7930;BME280;4010;42.698;23.124;2023-02-08T04:34:41;118349.16;;;-140.64;91.36
7930;BME280;4010;42.698;23.124;2023-02-08T04:37:08;118349.16;;;-140.64;90.97
7930;BME280;4010;42.698;23.124;2023-02-08T04:39:37;118349.16;;;-140.64;91.17
7930;BME280;4010;42.698;23.124;2023-02-08T04:42:04;118349.16;;;-140.64;90.94
7930;BME280;4010;42.698;23.124;2023-02-08T04:44:31;118349.16;;;-140.64;90.65
7930;BME280;4010;42.698;23.124;2023-02-08T04:46:58;118349.16;;;-140.64;90.83
7930;BME280;4010;42.698;23.124;2023-02-08T04:49:24;118349.16;;;-140.64;90.41
7930;BME280;4010;42.698;23.124;2023-02-08T04:51:51;118349.16;;;-140.64;90.86
7930;BME280;4010;42.698;23.124;2023-02-08T04:54:18;118349.16;;;-140.64;90.44
7930;BME280;4010;42.698;23.124;2023-02-08T04:56:46;118349.16;;;-140.64;90.84
7930;BME280;4010;42.698;23.124;2023-02-08T04:59:13;118349.16;;;-140.64;91.02
7930;BME280;4010;42.698;23.124;2023-02-08T05:01:39;118349.16;;;-140.64;91.35
7930;BME280;4010;42.698;23.124;2023-02-08T05:04:06;118349.16;;;-140.64;92.04
7930;BME280;4010;42.698;23.124;2023-02-08T05:06:33;118349.16;;;-140.64;92.30
7930;BME280;4010;42.698;23.124;2023-02-08T05:08:59;118349.16;;;-140.64;92.11
7930;BME280;4010;42.698;23.124;2023-02-08T05:11:26;118349.16;;;-140.64;92.12
7930;BME280;4010;42.698;23.124;2023-02-08T05:13:54;118349.16;;;-140.64;92.27
7930;BME280;4010;42.698;23.124;2023-02-08T05:16:22;118349.16;;;-140.64;92.22
7930;BME280;4010;42.698;23.124;2023-02-08T05:18:48;118349.16;;;-140.64;92.02
7930;BME280;4010;42.698;23.124;2023-02-08T05:21:15;118349.16;;;-140.64;91.64
7930;BME280;4010;42.698;23.124;2023-02-08T05:23:42;118349.16;;;-140.64;91.64
7930;BME280;4010;42.698;23.124;2023-02-08T05:26:10;118349.16;;;-140.64;92.18
7930;BME280;4010;42.698;23.124;2023-02-08T05:28:37;118349.16;;;-140.64;93.31
7930;BME280;4010;42.698;23.124;2023-02-08T05:31:13;118349.16;;;-140.64;93.68
7930;BME280;4010;42.698;23.124;2023-02-08T05:33:40;118349.16;;;-140.64;93.65
7930;BME280;4010;42.698;23.124;2023-02-08T05:36:07;118349.16;;;-140.64;94.02
7930;BME280;4010;42.698;23.124;2023-02-08T05:38:34;118349.16;;;-140.64;93.97
7930;BME280;4010;42.698;23.124;2023-02-08T05:41:01;118349.16;;;-140.64;94.61
7930;BME280;4010;42.698;23.124;2023-02-08T05:43:28;118349.16;;;-140.64;94.51
7930;BME280;4010;42.698;23.124;2023-02-08T05:45:54;118349.16;;;-140.64;94.89
7930;BME280;4010;42.698;23.124;2023-02-08T05:48:22;118349.16;;;-140.64;95.20
7930;BME280;4010;42.698;23.124;2023-02-08T05:50:49;118349.16;;;-140.64;93.95
7930;BME280;4010;42.698;23.124;2023-02-08T05:53:16;118349.16;;;-140.64;94.24
7930;BME280;4010;42.698;23.124;2023-02-08T05:55:43;118349.16;;;-140.64;94.25
7930;BME280;4010;42.698;23.124;2023-02-08T05:58:11;118349.16;;;-140.64;94.36
7930;BME280;4010;42.698;23.124;2023-02-08T06:00:38;118349.16;;;-140.64;94.55
7930;BME280;4010;42.698;23.124;2023-02-08T06:03:04;118349.16;;;-140.64;93.99
7930;BME280;4010;42.698;23.124;2023-02-08T06:05:33;118349.16;;;-140.64;94.41
7930;BME280;4010;42.698;23.124;2023-02-08T06:08:00;118349.16;;;-140.64;94.44
7930;BME280;4010;42.698;23.124;2023-02-08T06:10:27;118349.16;;;-140.64;94.14
7930;BME280;4010;42.698;23.124;2023-02-08T06:12:54;118349.16;;;-140.64;94.35
7930;BME280;4010;42.698;23.124;2023-02-08T06:15:20;118349.16;;;-140.64;93.88
7930;BME280;4010;42.698;23.124;2023-02-08T06:17:47;118349.16;;;-140.64;93.80
7930;BME280;4010;42.698;23.124;2023-02-08T06:20:14;118349.16;;;-140.64;93.50
7930;BME280;4010;42.698;23.124;2023-02-08T06:22:42;118349.16;;;-140.64;92.71
7930;BME280;4010;42.698;23.124;2023-02-08T06:25:08;118349.16;;;-140.64;91.14
7930;BME280;4010;42.698;23.124;2023-02-08T06:27:35;118349.16;;;-140.64;90.93
7930;BME280;4010;42.698;23.124;2023-02-08T06:30:02;118349.16;;;-140.64;90.35
7930;BME280;4010;42.698;23.124;2023-02-08T06:32:29;118349.16;;;-140.64;90.47
7930;BME280;4010;42.698;23.124;2023-02-08T06:34:56;118349.16;;;-140.64;89.40
7930;BME280;4010;42.698;23.124;2023-02-08T06:37:22;118349.16;;;-140.64;89.51
7930;BME280;4010;42.698;23.124;2023-02-08T06:39:50;118349.16;;;-140.64;89.22
7930;BME280;4010;42.698;23.124;2023-02-08T06:42:17;118349.16;;;-140.64;89.02
7930;BME280;4010;42.698;23.124;2023-02-08T06:44:44;118349.16;;;-140.64;88.51
7930;BME280;4010;42.698;23.124;2023-02-08T06:47:12;118349.16;;;-140.64;87.70
7930;BME280;4010;42.698;23.124;2023-02-08T06:49:38;118349.16;;;-140.64;86.34
7930;BME280;4010;42.698;23.124;2023-02-08T06:52:05;118349.16;;;-140.64;84.96
7930;BME280;4010;42.698;23.124;2023-02-08T06:54:32;118349.16;;;-140.64;84.51
7930;BME280;4010;42.698;23.124;2023-02-08T06:57:00;118349.16;;;-140.64;83.88
7930;BME280;4010;42.698;23.124;2023-02-08T06:59:27;118349.16;;;-140.64;83.47
7930;BME280;4010;42.698;23.124;2023-02-08T07:01:54;118349.16;;;-140.64;83.04
7930;BME280;4010;42.698;23.124;2023-02-08T07:04:21;118349.16;;;-140.64;82.73
7930;BME280;4010;42.698;23.124;2023-02-08T07:06:48;118349.16;;;-140.64;81.94
7930;BME280;4010;42.698;23.124;2023-02-08T07:09:14;118349.16;;;-140.64;80.91
7930;BME280;4010;42.698;23.124;2023-02-08T07:11:41;118349.16;;;-140.64;80.98
7930;BME280;4010;42.698;23.124;2023-02-08T07:14:11;118349.16;;;-140.64;80.38
7930;BME280;4010;42.698;23.124;2023-02-08T07:16:38;118349.16;;;-140.64;79.54
7930;BME280;4010;42.698;23.124;2023-02-08T07:19:05;118349.16;;;-140.64;79.57
7930;BME280;4010;42.698;23.124;2023-02-08T07:21:32;118349.16;;;-140.64;78.95
7930;BME280;4010;42.698;23.124;2023-02-08T07:23:58;118349.16;;;-140.64;79.11
7930;BME280;4010;42.698;23.124;2023-02-08T07:26:25;118349.16;;;-140.64;78.59
7930;BME280;4010;42.698;23.124;2023-02-08T07:28:52;118349.16;;;-140.64;77.39
7930;BME280;4010;42.698;23.124;2023-02-08T07:31:20;118349.16;;;-140.64;77.58
7930;BME280;4010;42.698;23.124;2023-02-08T07:33:47;118349.16;;;-140.64;77.26
7930;BME280;4010;42.698;23.124;2023-02-08T07:36:14;118349.16;;;-140.64;78.18
7930;BME280;4010;42.698;23.124;2023-02-08T07:38:40;118349.16;;;-140.64;78.66
7930;BME280;4010;42.698;23.124;2023-02-08T07:41:09;118349.16;;;-140.64;78.23
7930;BME280;4010;42.698;23.124;2023-02-08T07:43:37;118349.16;;;-140.64;77.33
7930;BME280;4010;42.698;23.124;2023-02-08T07:46:06;118349.16;;;-140.64;77.04
7930;BME280;4010;42.698;23.124;2023-02-08T07:48:34;118349.16;;;-140.64;75.98
7930;BME280;4010;42.698;23.124;2023-02-08T07:51:02;118349.16;;;-140.64;75.89
7930;BME280;4010;42.698;23.124;2023-02-08T07:53:29;118349.16;;;-140.64;76.75
7930;BME280;4010;42.698;23.124;2023-02-08T07:55:56;118349.16;;;-140.64;77.20
7930;BME280;4010;42.698;23.124;2023-02-08T07:58:23;118349.16;;;-140.64;77.61
7930;BME280;4010;42.698;23.124;2023-02-08T08:00:50;118349.16;;;-140.64;76.14
7930;BME280;4010;42.698;23.124;2023-02-08T08:03:17;118349.16;;;-140.64;75.28
7930;BME280;4010;42.698;23.124;2023-02-08T08:05:45;118349.16;;;-140.64;75.22
7930;BME280;4010;42.698;23.124;2023-02-08T08:08:12;118349.16;;;-140.64;75.07
7930;BME280;4010;42.698;23.124;2023-02-08T08:10:38;118349.16;;;-140.64;74.45
7930;BME280;4010;42.698;23.124;2023-02-08T08:13:05;118349.16;;;-140.64;73.58
7930;BME280;4010;42.698;23.124;2023-02-08T08:15:32;118349.16;;;-140.64;72.87
7930;BME280;4010;42.698;23.124;2023-02-08T08:17:59;118349.16;;;-140.64;73.93
7930;BME280;4010;42.698;23.124;2023-02-08T08:20:26;118349.16;;;-140.64;74.34
7930;BME280;4010;42.698;23.124;2023-02-08T08:22:54;118349.16;;;-140.64;75.12
7930;BME280;4010;42.698;23.124;2023-02-08T08:25:21;118349.16;;;-140.64;74.80
7930;BME280;4010;42.698;23.124;2023-02-08T08:27:47;118349.16;;;-140.64;73.79
7930;BME280;4010;42.698;23.124;2023-02-08T08:30:15;118349.16;;;-140.64;74.08
7930;BME280;4010;42.698;23.124;2023-02-08T08:32:42;118349.16;;;-140.64;73.74
7930;BME280;4010;42.698;23.124;2023-02-08T08:35:09;118349.16;;;-140.64;72.76
7930;BME280;4010;42.698;23.124;2023-02-08T08:37:36;118349.16;;;-140.64;73.93
7930;BME280;4010;42.698;23.124;2023-02-08T08:40:06;118349.16;;;-140.64;73.26
7930;BME280;4010;42.698;23.124;2023-02-08T08:42:33;118349.16;;;-140.64;71.62
7930;BME280;4010;42.698;23.124;2023-02-08T08:45:00;118349.16;;;-140.64;71.55
7930;BME280;4010;42.698;23.124;2023-02-08T08:47:27;118349.16;;;-140.64;71.71
7930;BME280;4010;42.698;23.124;2023-02-08T08:49:54;118349.16;;;-140.64;71.07
7930;BME280;4010;42.698;23.124;2023-02-08T08:52:20;118349.16;;;-140.64;72.09
7930;BME280;4010;42.698;23.124;2023-02-08T08:54:47;118349.16;;;-140.64;70.98
7930;BME280;4010;42.698;23.124;2023-02-08T08:57:15;118349.16;;;-140.64;72.32
7930;BME280;4010;42.698;23.124;2023-02-08T08:59:42;118349.16;;;-140.64;73.43
7930;BME280;4010;42.698;23.124;2023-02-08T09:02:11;118349.16;;;-140.64;73.35
7930;BME280;4010;42.698;23.124;2023-02-08T09:04:38;118349.16;;;-140.64;72.51
7930;BME280;4010;42.698;23.124;2023-02-08T09:07:06;118349.16;;;-140.64;71.28
7930;BME280;4010;42.698;23.124;2023-02-08T09:09:34;118349.16;;;-140.64;71.41
7930;BME280;4010;42.698;23.124;2023-02-08T09:12:01;118349.16;;;-140.64;72.17
7930;BME280;4010;42.698;23.124;2023-02-08T09:14:30;118349.16;;;-140.64;72.54
7930;BME280;4010;42.698;23.124;2023-02-08T09:16:56;118349.16;;;-140.64;72.30
7930;BME280;4010;42.698;23.124;2023-02-08T09:19:23;118349.16;;;-140.64;72.35
7930;BME280;4010;42.698;23.124;2023-02-08T09:21:50;118349.16;;;-140.64;72.66
7930;BME280;4010;42.698;23.124;2023-02-08T09:24:16;118349.16;;;-140.64;70.33
7930;BME280;4010;42.698;23.124;2023-02-08T09:26:43;118349.16;;;-140.64;70.59
7930;BME280;4010;42.698;23.124;2023-02-08T09:29:11;118349.16;;;-140.64;68.96
7930;BME280;4010;42.698;23.124;2023-02-08T09:31:39;118349.16;;;-140.64;69.92
7930;BME280;4010;42.698;23.124;2023-02-08T09:34:06;118349.16;;;-140.64;69.78
7930;BME280;4010;42.698;23.124;2023-02-08T09:36:34;118349.16;;;-140.64;68.65
7930;BME280;4010;42.698;23.124;2023-02-08T09:39:04;118349.16;;;-140.64;68.87
7930;BME280;4010;42.698;23.124;2023-02-08T09:41:43;118349.16;;;-140.64;67.87
7930;BME280;4010;42.698;23.124;2023-02-08T09:44:21;118349.16;;;-140.64;67.59
7930;BME280;4010;42.698;23.124;2023-02-08T09:46:56;118349.16;;;-140.64;67.69
7930;BME280;4010;42.698;23.124;2023-02-08T09:49:28;118349.16;;;-140.64;68.03
7930;BME280;4010;42.698;23.124;2023-02-08T09:51:58;118349.16;;;-140.64;69.74
7930;BME280;4010;42.698;23.124;2023-02-08T09:54:30;118349.16;;;-140.64;69.59
7930;BME280;4010;42.698;23.124;2023-02-08T09:56:59;118349.16;;;-140.64;68.86
7930;BME280;4010;42.698;23.124;2023-02-08T09:59:30;118349.16;;;-140.64;68.42
7930;BME280;4010;42.698;23.124;2023-02-08T10:02:03;118349.16;;;-140.64;67.56
7930;BME280;4010;42.698;23.124;2023-02-08T10:04:54;118349.16;;;-140.64;67.73
7930;BME280;4010;42.698;23.124;2023-02-08T10:07:23;118349.16;;;-140.64;69.60
7930;BME280;4010;42.698;23.124;2023-02-08T10:09:52;118349.16;;;-140.64;68.82
7930;BME280;4010;42.698;23.124;2023-02-08T10:12:27;118349.16;;;-140.64;68.58
7930;BME280;4010;42.698;23.124;2023-02-08T10:15:02;118349.16;;;-140.64;68.87
7930;BME280;4010;42.698;23.124;2023-02-08T10:17:44;118349.16;;;-140.64;68.79
7930;BME280;4010;42.698;23.124;2023-02-08T10:20:23;118349.16;;;-140.64;68.43
7930;BME280;4010;42.698;23.124;2023-02-08T10:22:58;118349.16;;;-140.64;67.39
7930;BME280;4010;42.698;23.124;2023-02-08T10:26:08;118349.16;;;-140.64;67.80
7930;BME280;4010;42.698;23.124;2023-02-08T10:31:53;118349.16;;;-140.64;67.37
7930;BME280;4010;42.698;23.124;2023-02-08T10:34:37;118349.16;;;-140.64;65.91
7930;BME280;4010;42.698;23.124;2023-02-08T10:37:11;118349.16;;;-140.64;65.11
7930;BME280;4010;42.698;23.124;2023-02-08T10:39:42;118349.16;;;-140.64;64.85
7930;BME280;4010;42.698;23.124;2023-02-08T10:42:17;118349.16;;;-140.64;63.60
7930;BME280;4010;42.698;23.124;2023-02-08T10:44:54;118349.16;;;-140.64;63.78
7930;BME280;4010;42.698;23.124;2023-02-08T10:47:35;118349.16;;;-140.64;62.14
7930;BME280;4010;42.698;23.124;2023-02-08T10:50:13;118349.16;;;-140.64;62.45
7930;BME280;4010;42.698;23.124;2023-02-08T10:52:43;118349.16;;;-140.64;62.21
7930;BME280;4010;42.698;23.124;2023-02-08T10:55:19;118349.16;;;-140.64;60.48
7930;BME280;4010;42.698;23.124;2023-02-08T10:57:53;118349.16;;;-140.64;59.43
7930;BME280;4010;42.698;23.124;2023-02-08T11:00:23;118349.16;;;-140.64;59.59
7930;BME280;4010;42.698;23.124;2023-02-08T11:02:56;118349.16;;;-140.64;58.89
7930;BME280;4010;42.698;23.124;2023-02-08T11:05:33;118349.16;;;-140.64;58.05
7930;BME280;4010;42.698;23.124;2023-02-08T11:08:08;118349.16;;;-140.64;58.96
7930;BME280;4010;42.698;23.124;2023-02-08T11:10:55;118349.16;;;-140.64;59.90
7930;BME280;4010;42.698;23.124;2023-02-08T11:13:32;118349.16;;;-140.64;60.92
7930;BME280;4010;42.698;23.124;2023-02-08T11:16:00;118349.16;;;-140.64;61.41
7930;BME280;4010;42.698;23.124;2023-02-08T11:18:35;118349.16;;;-140.64;61.03
7930;BME280;4010;42.698;23.124;2023-02-08T11:21:23;118349.16;;;-140.64;61.56
7930;BME280;4010;42.698;23.124;2023-02-08T11:23:55;118349.16;;;-140.64;62.33
7930;BME280;4010;42.698;23.124;2023-02-08T11:26:31;118349.16;;;-140.64;63.19
7930;BME280;4010;42.698;23.124;2023-02-08T11:29:00;118349.16;;;-140.64;62.96
7930;BME280;4010;42.698;23.124;2023-02-08T11:31:32;118349.16;;;-140.64;64.09
7930;BME280;4010;42.698;23.124;2023-02-08T11:34:02;118349.16;;;-140.64;64.46
7930;BME280;4010;42.698;23.124;2023-02-08T11:36:31;118349.16;;;-140.64;63.49
7930;BME280;4010;42.698;23.124;2023-02-08T11:39:00;118349.16;;;-140.64;63.25
7930;BME280;4010;42.698;23.124;2023-02-08T11:41:28;118349.16;;;-140.64;63.26
7930;BME280;4010;42.698;23.124;2023-02-08T11:44:10;118349.16;;;-140.64;63.94
7930;BME280;4010;42.698;23.124;2023-02-08T11:46:45;118349.16;;;-140.64;63.30
7930;BME280;4010;42.698;23.124;2023-02-08T11:49:20;118349.16;;;-140.64;63.37
7930;BME280;4010;42.698;23.124;2023-02-08T11:51:49;118349.16;;;-140.64;64.22
7930;BME280;4010;42.698;23.124;2023-02-08T11:54:32;118349.16;;;-140.64;64.36
7930;BME280;4010;42.698;23.124;2023-02-08T12:00:32;118349.16;;;-140.64;64.29
7930;BME280;4010;42.698;23.124;2023-02-08T12:03:01;118349.16;;;-140.64;63.74
7930;BME280;4010;42.698;23.124;2023-02-08T12:05:36;118349.16;;;-140.64;64.75
7930;BME280;4010;42.698;23.124;2023-02-08T12:08:14;118349.16;;;-140.64;63.99
7930;BME280;4010;42.698;23.124;2023-02-08T12:14:11;118349.16;;;-140.64;62.94
7930;BME280;4010;42.698;23.124;2023-02-08T12:16:55;118349.16;;;-140.64;63.36
7930;BME280;4010;42.698;23.124;2023-02-08T12:22:38;118349.16;;;-140.64;64.33
7930;BME280;4010;42.698;23.124;2023-02-08T12:25:21;118349.16;;;-140.64;64.09
7930;BME280;4010;42.698;23.124;2023-02-08T12:28:29;118349.16;;;-140.64;63.43
7930;BME280;4010;42.698;23.124;2023-02-08T12:31:06;118349.16;;;-140.64;63.50
7930;BME280;4010;42.698;23.124;2023-02-08T12:34:05;118349.16;;;-140.64;63.63
7930;BME280;4010;42.698;23.124;2023-02-08T12:40:11;118349.16;;;-140.64;62.91
7930;BME280;4010;42.698;23.124;2023-02-08T12:46:32;118349.16;;;-140.64;62.78
7930;BME280;4010;42.698;23.124;2023-02-08T12:52:28;118349.16;;;-140.64;63.10
7930;BME280;4010;42.698;23.124;2023-02-08T12:55:00;118349.16;;;-140.64;61.77
7930;BME280;4010;42.698;23.124;2023-02-08T12:57:29;118349.16;;;-140.64;61.39
7930;BME280;4010;42.698;23.124;2023-02-08T12:59:59;118349.16;;;-140.64;60.97
7930;BME280;4010;42.698;23.124;2023-02-08T13:02:31;118349.16;;;-140.64;60.06
7930;BME280;4010;42.698;23.124;2023-02-08T13:05:12;118349.16;;;-140.64;60.76
7930;BME280;4010;42.698;23.124;2023-02-08T13:07:43;118349.16;;;-140.64;61.45
7930;BME280;4010;42.698;23.124;2023-02-08T13:10:17;118349.16;;;-140.64;60.83
7930;BME280;4010;42.698;23.124;2023-02-08T13:12:52;118349.16;;;-140.64;59.55
7930;BME280;4010;42.698;23.124;2023-02-08T13:15:23;118349.16;;;-140.64;58.80
7930;BME280;4010;42.698;23.124;2023-02-08T13:17:54;118349.16;;;-140.64;59.18
7930;BME280;4010;42.698;23.124;2023-02-08T13:20:29;118349.16;;;-140.64;58.79
7930;BME280;4010;42.698;23.124;2023-02-08T13:23:03;118349.16;;;-140.64;59.35